createdAt,value
2022-11-22T00:00:53.274Z,52.1
2022-11-22T00:06:29.921Z,52.1
2022-11-22T00:11:52.356Z,52.1
2022-11-22T00:17:16.509Z,52
2022-11-22T00:33:30.046Z,51.9
2022-11-22T00:38:51.705Z,51.9
2022-11-22T00:44:28.527Z,51.8
2022-11-22T00:50:06.818Z,51.8
2022-11-22T00:55:44.377Z,51.8
2022-11-22T01:01:26.516Z,51.8
2022-11-22T01:07:05.056Z,51.7
2022-11-22T01:12:42.344Z,51.6
2022-11-22T01:18:19.531Z,51.6
2022-11-22T01:23:57.894Z,51.6
2022-11-22T01:29:19.541Z,51.6
2022-11-22T01:34:41.623Z,51.5
2022-11-22T01:40:19.566Z,51.5
2022-11-22T01:45:56.896Z,51.4
2022-11-22T01:51:34.403Z,51.4
2022-11-22T01:57:12.315Z,51.4
2022-11-22T02:02:50.076Z,51.3
2022-11-22T02:08:13.666Z,51.3
2022-11-22T02:13:52.758Z,51.8
2022-11-22T02:19:29.990Z,53.3
2022-11-22T02:24:51.354Z,54.9
2022-11-22T02:30:29.875Z,56.5
2022-11-22T02:36:07.255Z,57.9
2022-11-22T02:41:45.190Z,58
2022-11-22T02:47:23.319Z,58
2022-11-22T02:52:44.975Z,57.9
2022-11-22T02:58:22.570Z,57.9
2022-11-22T03:04:04.871Z,57.9
2022-11-22T03:09:46.504Z,58.9
2022-11-22T03:15:07.488Z,59.9
2022-11-22T03:20:29.707Z,60
2022-11-22T03:25:53.409Z,59.9
2022-11-22T03:31:30.870Z,59.9
2022-11-22T03:37:09.075Z,59.9
2022-11-22T03:42:37.728Z,59.9
2022-11-22T03:48:14.821Z,59.8
2022-11-22T03:53:37.731Z,59.8
2022-11-22T03:59:15.455Z,59.8
2022-11-22T04:04:42.374Z,59.7
2022-11-22T04:10:06.441Z,59.6
2022-11-22T04:15:28.088Z,59.6
2022-11-22T04:20:49.723Z,59.6
2022-11-22T04:26:27.339Z,59.5
2022-11-22T04:32:39.059Z,59.5
2022-11-22T04:38:00.279Z,59.4
2022-11-22T04:43:22.941Z,59.4
2022-11-22T04:48:45.388Z,59.4
2022-11-22T04:53:52.500Z,59.3
2022-11-22T04:59:20.698Z,59.3
2022-11-22T05:05:02.817Z,59.3
2022-11-22T05:10:43.516Z,59.2
2022-11-22T05:15:51.000Z,59.1
2022-11-22T05:20:57.788Z,59.1
2022-11-22T05:26:19.562Z,58.9
2022-11-22T05:31:26.881Z,58.9
2022-11-22T05:37:09.534Z,58.8
2022-11-22T05:42:47.709Z,58.8
2022-11-22T05:48:27.071Z,58.8
2022-11-22T05:54:09.057Z,58.7
2022-11-22T05:59:32.145Z,58.7
2022-11-22T06:15:48.842Z,58.4
2022-11-22T06:21:30.005Z,58.4
2022-11-22T06:27:12.459Z,58.4
2022-11-22T06:32:37.186Z,58.3
2022-11-22T06:38:17.608Z,58.3
2022-11-22T06:43:54.230Z,58.2
2022-11-22T06:49:31.179Z,58.2
2022-11-22T06:56:05.138Z,58.1
2022-11-22T07:01:43.196Z,58.1
2022-11-22T07:08:02.904Z,58
2022-11-22T07:13:44.175Z,58
2022-11-22T07:19:29.531Z,57.9
2022-11-22T07:24:54.894Z,57.9
2022-11-22T07:30:33.596Z,57.8
2022-11-22T07:46:48.413Z,57.7
2022-11-22T07:52:28.510Z,57.6
2022-11-22T07:57:50.817Z,57.6
2022-11-22T08:03:34.426Z,57.6
2022-11-22T08:09:18.496Z,57.5
2022-11-22T08:14:56.080Z,57.4
2022-11-22T08:20:39.289Z,57.4
2022-11-22T08:26:17.947Z,57.4
2022-11-22T08:31:55.654Z,57.3
2022-11-22T08:37:39.036Z,57.3
2022-11-22T08:43:17.727Z,57.2
2022-11-22T08:48:55.872Z,57.2
2022-11-22T08:54:37.862Z,57.1
2022-11-22T09:00:17.096Z,57.1
2022-11-22T09:14:00.348Z,56.9
2022-11-22T09:19:38.657Z,56.9
2022-11-22T09:25:19.729Z,56.9
2022-11-22T09:30:59.473Z,56.8
2022-11-22T09:36:38.019Z,56.8
2022-11-22T09:42:22.148Z,56.8
2022-11-22T09:48:04.182Z,56.7
2022-11-22T09:53:46.111Z,56.6
2022-11-22T09:59:24.182Z,56.6
2022-11-22T10:05:35.925Z,56.5
2022-11-22T10:11:14.767Z,56.5
2022-11-22T10:16:56.376Z,56.4
2022-11-22T10:22:36.183Z,56.4
2022-11-22T10:28:17.510Z,56.4
2022-11-22T10:34:00.685Z,56.3
2022-11-22T10:39:40.275Z,56.3
2022-11-22T10:45:18.630Z,56.2
2022-11-22T10:50:59.584Z,56.2
2022-11-22T10:56:38.962Z,56.1
2022-11-22T11:02:21.089Z,56.1
2022-11-22T11:15:54.416Z,55.9
2022-11-22T11:21:34.465Z,55.9
2022-11-22T11:27:48.110Z,55.9
2022-11-22T11:33:31.726Z,55.8
2022-11-22T11:39:10.376Z,55.8
2022-11-22T11:44:50.760Z,55.8
2022-11-22T11:50:29.965Z,55.7
2022-11-22T11:55:52.403Z,55.7
2022-11-22T12:01:34.458Z,55.6
2022-11-22T12:07:03.396Z,55.6
2022-11-22T12:12:41.785Z,55.5
2022-11-22T12:19:25.287Z,55.5
2022-11-22T12:49:54.790Z,55.4
2022-11-22T12:55:35.160Z,55.2
2022-11-22T13:01:21.135Z,55.1
2022-11-22T13:07:00.245Z,55.1
2022-11-22T13:12:45.997Z,55.1
2022-11-22T13:18:23.273Z,55
2022-11-22T13:24:08.695Z,54.9
2022-11-22T13:29:54.317Z,54.9
2022-11-22T13:35:38.209Z,54.9
2022-11-22T13:41:17.809Z,54.8
2022-11-22T13:47:04.389Z,54.8
2022-11-22T13:52:46.219Z,54.7
2022-11-22T13:58:15.309Z,54.7
2022-11-22T14:03:41.416Z,54.6
2022-11-22T14:09:23.855Z,54.6
2022-11-22T14:15:06.629Z,54.6
2022-11-22T14:20:49.782Z,54.5
2022-11-22T14:26:27.415Z,54.4
2022-11-22T14:32:11.776Z,54.4
2022-11-22T14:37:36.385Z,54.4
2022-11-22T14:43:18.500Z,54.3
2022-11-22T14:49:30.324Z,54.3
2022-11-22T14:55:15.083Z,54.2
2022-11-22T15:00:57.320Z,54.1
2022-11-22T15:11:53.698Z,54.1
2022-11-22T15:59:29.263Z,53.7
2022-11-22T16:06:43.851Z,53.6
2022-11-22T16:12:13.931Z,53.6
2022-11-22T16:17:36.907Z,53.5
2022-11-22T16:23:21.883Z,53.5
2022-11-22T16:28:50.726Z,53.4
2022-11-22T16:34:29.288Z,53.4
2022-11-22T16:40:39.690Z,53.3
2022-11-22T16:46:08.101Z,53.3
2022-11-22T16:51:28.701Z,53.3
2022-11-22T16:57:07.998Z,53.2
2022-11-22T17:02:52.631Z,53.2
2022-11-22T17:08:34.566Z,53.1
2022-11-22T17:14:14.183Z,53.1
2022-11-22T17:20:23.218Z,53
2022-11-22T17:25:53.800Z,53
2022-11-22T17:32:07.636Z,52.9
2022-11-22T17:37:44.663Z,52.9
2022-11-22T17:43:30.650Z,52.9
2022-11-22T17:49:14.200Z,52.8
2022-11-22T17:54:53.461Z,52.8
2022-11-22T18:01:04.589Z,52.8
2022-11-22T18:06:18.853Z,52.7
2022-11-22T18:11:56.828Z,52.6
2022-11-22T18:17:55.226Z,52.6
2022-11-22T18:24:08.520Z,52.6
2022-11-22T18:30:55.975Z,52.5
2022-11-22T18:37:10.124Z,52.4
2022-11-22T18:48:06.710Z,52.3
2022-11-22T18:53:50.120Z,52.2
2022-11-22T18:59:15.037Z,52.1
2022-11-22T19:04:54.310Z,52.1
2022-11-22T19:10:33.620Z,52
2022-11-22T19:27:09.467Z,51.9
2022-11-22T19:32:50.559Z,51.8
2022-11-22T19:37:59.661Z,51.8
2022-11-22T19:43:12.252Z,51.8
2022-11-22T19:49:03.243Z,51.7
2022-11-22T19:54:27.325Z,51.6
2022-11-22T20:00:13.894Z,51.6
2022-11-22T20:05:54.963Z,51.5
2022-11-22T20:11:23.890Z,51.5
2022-11-22T20:17:09.907Z,51.4
2022-11-22T20:22:35.421Z,51.4
2022-11-22T20:28:16.115Z,51.4
2022-11-22T20:33:40.170Z,51.3
2022-11-22T20:39:09.662Z,51.3
2022-11-22T20:45:17.609Z,51.2
2022-11-22T20:50:56.303Z,51.1
2022-11-22T20:56:42.196Z,51.1
2022-11-22T21:02:25.702Z,51.1
2022-11-22T21:08:05.374Z,51
2022-11-22T21:13:45.001Z,50.9
2022-11-22T21:20:07.758Z,50.9
2022-11-22T21:25:34.602Z,50.9
2022-11-22T21:30:42.467Z,50.8
2022-11-22T21:36:20.521Z,50.8
2022-11-22T21:42:21.499Z,50.7
2022-11-22T21:48:06.601Z,50.7
2022-11-22T21:53:51.152Z,50.6
2022-11-22T21:59:20.118Z,50.6
2022-11-22T22:04:59.503Z,50.5
2022-11-22T22:11:10.101Z,50.4
2022-11-22T22:16:48.657Z,50.4
2022-11-22T22:22:32.333Z,50.4
2022-11-22T22:28:10.321Z,50.3
2022-11-22T22:33:51.236Z,50.3
2022-11-22T22:39:14.861Z,50.3
2022-11-22T22:44:36.691Z,50.2
2022-11-22T22:50:22.866Z,50.2
2022-11-22T22:56:05.179Z,50.1
2022-11-22T23:01:47.035Z,50.1
2022-11-22T23:07:09.720Z,50
2022-11-22T23:12:18.556Z,49.9
2022-11-22T23:18:21.409Z,49.9
2022-11-22T23:24:05.061Z,49.9
2022-11-22T23:29:28.106Z,49.8
2022-11-22T23:34:50.791Z,49.8
2022-11-22T23:40:28.653Z,49.8
2022-11-22T23:46:07.273Z,49.7
2022-11-22T23:51:44.928Z,49.6
2022-11-22T23:57:27.924Z,49.6
